Aviation Digital Data Service (ADDS)

Output produced by METARs form (2041 UTC 30 April 2016)
found at http://www.aviationweather.gov/adds/metars/
 
KALB 301729Z 3018/0118 02004KT P6SM FEW070 FEW260 
     FM302300 VRB03KT P6SM BKN050 OVC200 
     FM010600 15004KT P6SM OVC050 
     FM011400 14007KT 3SM -RA BR OVC025